AirNav   Duncan Aviation - Near you to keep you flying
 
 1733 users online  

00ID Delta Shores Airport
Clark Fork, Idaho, USA

GOING TO CLARK FORK?


FAA INFORMATION EFFECTIVE 14 JULY 2022

Location

FAA Identifier: 00ID
Lat/Long: 48-08-43.0000N 116-12-52.0000W
48-08.716667N 116-12.866667W
48.1452778,-116.2144444
(estimated)
Elevation: 2064 ft. / 629 m (estimated)
From city: 1 mile NE of CLARK FORK, ID
Time zone: UTC -7 (UTC -8 during Standard Time)
Zip code: 83811

Airport Operations

Airport use: Private use. Permission required prior to landing
Activation date: 02/2005
Control tower: no
ARTCC: SEATTLE CENTER
FSS: BOISE FLIGHT SERVICE STATION
Attendance: UNATNDD
Wind indicator: yes
Segmented circle: no

Airport Communications

WX AWOS-3 at SZT (17 nm NW): 135.425 (208-263-3074)

Nearby radio navigation aids

VOR radial/distance  VOR name  Freq  Var
COEr029/33.0COEUR D'ALENE VOR/DME108.8019E

 
NDB name  Hdg/Dist  Freq  Var  ID
SANDPOE108/16.426414ESZT ... --.. -

Airport Services

Runway Information

Runway 8/26

Dimensions: 3500 x 40 ft. / 1067 x 12 m
Surface: turf
RUNWAY 8  RUNWAY 26
Traffic pattern: leftleft

Runway 11/29

Dimensions: 2900 x 40 ft. / 884 x 12 m
Surface: turf
RUNWAY 11  RUNWAY 29
Traffic pattern: leftleft
Obstructions: 120 ft. trees, 900 ft. from runway120 ft. trees, 1000 ft. from runway

Airport Ownership and Management from official FAA records

Ownership: Privately-owned
Owner: JAY WHITE
P.O. BOX 528
CLARK FORK, ID 83811-9081
Phone (208) 266-0381
Manager: GEORGE CORDINGLY
495 DERR ISLAND RD.
CLARK FORK, ID 83811
Phone 208-266-0225

Airport Operational Statistics

Aircraft based on the field: 6
Single engine airplanes: 6
    

Additional Remarks

FOR CD CTC SEATTLE ARTCC AT 253-351-3694.

Instrument Procedures

There are no published instrument procedures at 00ID.

Some nearby airports with instrument procedures:

KSZT - Sandpoint Airport (17 nm NW)
S59 - Libby Airport (30 nm E)
KCOE - Coeur d'Alene Airport - Pappy Boyington Field (33 nm SW)
65S - Boundary County Airport (35 nm N)
KDEW - Deer Park Airport (50 nm W)
 
Loc | Ops | Rwys | IFR | FBO | Links
Com | Nav | Svcs | Stats | Notes
Area around 00ID (Delta Shores Airport)
 
Road maps at: MapQuest Bing Google
 
Aerial photo
No photo
 
Sectional chart

 
Airport distance calculator
Flying to Delta Shores Airport? Find the distance to fly.

From to 00ID

Sunrise and sunset
Times for 08-Aug-2022
 Local
(UTC-7)
 Zulu
(UTC)
Morning civil twilight04:5611:56
Sunrise05:3112:31
Sunset20:1003:10
Evening civil twilight20:4503:45

Current date and time
Zulu (UTC)  08-Aug-2022 21:13:20
Local (UTC-7)  08-Aug-2022 14:13:20
 
METAR
KSZT 
17nm NW 
082055Z AUTO 20006KT 10SM CLR 32/02 A3000 RMK AO2
KS59 
30nm E 
082100Z AUTO 08004KT 10SM 33/04 A2997
KCOE 
33nm SW 
082056Z AUTO 15006KT 9SM CLR 32/07 A3001 RMK AO2 SLP160 6//// T03220067 58011 PNO $
TAF
KCOE 
33nm SW 
081722Z 0818/0918 14006KT P6SM SKC FM082200 23007KT P6SM SKC FM090300 07005KT P6SM FEW250 FM091200 06011KT P6SM SCT150 SCT200
NOTAMs
Click for the latest NOTAMs
NOTAMs are issued by the DoD/FAA and will open in a separate window not controlled by AirNav.

 

 
 

Would you like to see your business listed on this page?

 If your business provides an interesting product or service to pilots, flight crews, aircraft, or users of the Delta Shores Airport, you should consider listing it here.  To start the listing process, click on the button below
 
Add a business
 

Other Pages about Delta Shores Airport

Update a link
 
Copyright © AirNav, LLC. All rights reserved. Privacy Policy  Contact